Weather History for Bridgeport, TX

Change the Weather History Date:

Monday, January 6, 2014

  Actual Average (KMWL) Record (KMWL)
Temperature  
Mean Temperature 22 °F -  
Max Temperature 32 °F 56 °F 77 °F (2008)
Min Temperature 13 °F 33 °F 10 °F (2014)
Degree Days  
Heating Degree Days 42    
Moisture  
Dew Point 3 °F    
Average Humidity 48    
Maximum Humidity 65    
Minimum Humidity 28    
Precipitation  
Precipitation 0.00 in - - ()
Sea Level Pressure  
Sea Level Pressure 30.66 in    
Wind  
Wind Speed 7 mph (NW)    
Max Wind Speed 15 mph    
Max Gust Speed 20 mph    
Visibility 10 miles    
Events      
Averages and records for this station are not official NWS values.
T = Trace of Precipitation, MM = Missing Value Source: NWS Daily Summary

Daily Weather History Graph

Daily Weather History Graph

Search for Another Location

Airport:

Trip Planner

Search our weather history database for the weather conditions in past years. The results will help you decide how hot, cold, wet, or windy it might be!

Date:

Astronomy

Jan. 06, 2014 Rise Set
Actual Time 7:35 AM CST 5:39 PM CST
Civil Twilight 7:08 AM CST 6:06 PM CST
Nautical Twilight 6:37 AM CST 6:37 PM CST
Astronomical Twilight 6:07 AM CST 7:07 PM CST
Moon 11:11 AM CST (1/6) 11:52 PM CST (1/6)
Length of Visible Light 10h 58m
Length of Day
10h 03m
Waxing Crescent, 35% of the Moon is Illuminated
Jan 6
Waxing Crescent
Jan 7
First Quarter
Jan 15
Full
Jan 23
Last Quarter
Jan 30
New

Hourly Weather History & Observations

Time (CST) Temp. Windchill Dew Point Humidity Pressure Visibility Wind Dir Wind Speed Gust Speed Precip Events Conditions
12:15 AM 17.4 °F 5.4 °F 1.9 °F 51% 30.62 in 10.0 mi North 10.4 mph 17.3 mph N/A   Clear
12:35 AM 16.7 °F 2.0 °F 1.8 °F 52% 30.62 in 10.0 mi North 15.0 mph 19.6 mph N/A   Clear
12:55 AM 16.5 °F 6.0 °F 1.2 °F 51% 30.63 in 10.0 mi North 8.1 mph - N/A   Clear
1:15 AM 16.3 °F 5.7 °F 0.5 °F 50% 30.63 in 10.0 mi NNE 8.1 mph 17.3 mph N/A   Clear
1:35 AM 15.8 °F 2.7 °F -0.8 °F 48% 30.63 in 10.0 mi NNE 11.5 mph 16.1 mph N/A   Clear
1:55 AM 15.3 °F 4.4 °F -0.4 °F 50% 30.62 in 10.0 mi North 8.1 mph - N/A   Clear
2:15 AM 15.4 °F 2.3 °F -0.4 °F 50% 30.62 in 10.0 mi NNE 11.5 mph 18.4 mph N/A   Clear
2:35 AM 14.9 °F 3.1 °F -0.2 °F 51% 30.64 in 10.0 mi NNE 9.2 mph 16.1 mph N/A   Clear
2:55 AM 14.7 °F 3.8 °F 0.3 °F 53% 30.65 in 10.0 mi North 8.1 mph - N/A   Clear
3:15 AM 14.5 °F 5.7 °F 0.5 °F 54% 30.65 in 10.0 mi North 5.8 mph - N/A   Clear
3:35 AM 14.7 °F 4.8 °F 0.5 °F 53% 30.65 in 10.0 mi North 6.9 mph - N/A   Clear
3:55 AM 14.4 °F 4.3 °F 0.5 °F 54% 30.65 in 10.0 mi North 6.9 mph - N/A   Clear
4:15 AM 14.4 °F 5.5 °F 0.3 °F 54% 30.64 in 10.0 mi North 5.8 mph - N/A   Clear
4:35 AM 14.0 °F 6.5 °F 0.5 °F 55% 30.65 in 10.0 mi North 4.6 mph - N/A   Clear
4:55 AM 14.5 °F 5.7 °F -0.2 °F 52% 30.65 in 10.0 mi North 5.8 mph - N/A   Clear
5:15 AM 13.6 °F 4.6 °F -0.0 °F 55% 30.65 in 10.0 mi North 5.8 mph - N/A   Clear
5:35 AM 13.8 °F 6.2 °F -0.2 °F 54% 30.66 in 10.0 mi North 4.6 mph - N/A   Clear
5:55 AM 14.0 °F 3.9 °F -0.4 °F 53% 30.67 in 10.0 mi North 6.9 mph - N/A   Clear
6:15 AM 14.2 °F 6.7 °F 1.2 °F 56% 30.68 in 10.0 mi NNW 4.6 mph - N/A   Clear
6:35 AM 14.0 °F 6.5 °F 2.5 °F 60% 30.68 in 10.0 mi NNW 4.6 mph - N/A   Clear
6:55 AM 13.8 °F 6.2 °F 2.3 °F 60% 30.69 in 10.0 mi NNW 4.6 mph - N/A   Clear
7:15 AM 14.2 °F 5.3 °F 3.0 °F 61% 30.69 in 10.0 mi NNW 5.8 mph - N/A   Clear
7:35 AM 13.8 °F 6.2 °F 2.8 °F 62% 30.70 in 10.0 mi NW 4.6 mph - N/A   Clear
7:55 AM 14.0 °F 6.5 °F 3.2 °F 62% 30.71 in 10.0 mi NW 4.6 mph - N/A   Clear
8:15 AM 14.5 °F 7.1 °F 3.4 °F 61% 30.72 in 10.0 mi WNW 4.6 mph - N/A   Clear
8:35 AM 14.9 °F 5.0 °F 3.7 °F 61% 30.73 in 10.0 mi WNW 6.9 mph - N/A   Clear
8:55 AM 15.8 °F 6.1 °F 3.7 °F 59% 30.75 in 10.0 mi West 6.9 mph - N/A   Clear
9:15 AM 16.7 °F 8.3 °F 3.9 °F 57% 30.75 in 10.0 mi West 5.8 mph - N/A   Clear
9:35 AM 17.8 °F 9.6 °F 3.2 °F 53% 30.75 in 10.0 mi NW 5.8 mph - N/A   Clear
9:55 AM 18.3 °F 8.2 °F 1.9 °F 49% 30.76 in 10.0 mi WNW 8.1 mph - N/A   Clear
10:15 AM 19.0 °F 10.0 °F 2.1 °F 48% 30.76 in 10.0 mi NW 6.9 mph - N/A   Clear
10:35 AM 20.8 °F 13.2 °F 3.4 °F 47% 30.77 in 10.0 mi WNW 5.8 mph - N/A   Clear
10:55 AM 22.5 °F 13.2 °F 4.3 °F 46% 30.77 in 10.0 mi NW 8.1 mph - N/A   Clear
11:15 AM 23.0 °F 13.1 °F 4.3 °F 45% 30.77 in 10.0 mi NW 9.2 mph - N/A   Clear
11:35 AM 24.4 °F 14.2 °F 5.4 °F 44% 30.76 in 10.0 mi NW 10.4 mph - N/A   Clear
11:55 AM 25.5 °F 16.2 °F 4.5 °F 41% 30.75 in 10.0 mi North 9.2 mph 16.1 mph N/A   Clear
12:15 PM 26.2 °F 16.4 °F 4.1 °F 39% 30.72 in 10.0 mi NNW 10.4 mph 17.3 mph N/A   Clear
12:35 PM 27.1 °F 17.5 °F 4.8 °F 39% 30.71 in 10.0 mi NW 10.4 mph - N/A   Clear
12:55 PM 28.0 °F 18.1 °F 4.5 °F 37% 30.70 in 10.0 mi NW 11.5 mph 16.1 mph N/A   Clear
1:15 PM 28.8 °F 20.2 °F 4.8 °F 36% 30.68 in 10.0 mi NNW 9.2 mph - N/A   Clear
1:35 PM 29.7 °F 20.7 °F 4.8 °F 35% 30.67 in 10.0 mi NW 10.4 mph - N/A   Clear
1:55 PM 30.2 °F 22.6 °F 4.8 °F 34% 30.67 in 10.0 mi NNW 8.1 mph - N/A   Clear
2:15 PM 30.6 °F 23.8 °F 4.8 °F 34% 30.66 in 10.0 mi NW 6.9 mph - N/A   Clear
2:35 PM 31.1 °F 23.7 °F 3.6 °F 31% 30.65 in 10.0 mi North 8.1 mph - N/A   Clear
2:55 PM 31.3 °F 23.9 °F 3.7 °F 31% 30.65 in 10.0 mi North 8.1 mph - N/A   Clear
3:15 PM 31.8 °F 25.4 °F 3.6 °F 30% 30.64 in 10.0 mi North 6.9 mph - N/A   Clear
3:35 PM 31.8 °F 27.3 °F 3.4 °F 30% 30.64 in 10.0 mi North 4.6 mph - N/A   Clear
3:55 PM 31.5 °F 24.9 °F 3.4 °F 30% 30.63 in 10.0 mi NW 6.9 mph - N/A   Clear
4:15 PM 32.0 °F 26.4 °F 1.9 °F 28% 30.63 in 10.0 mi NNW 5.8 mph - N/A   Clear
4:35 PM 31.6 °F 28.3 °F 2.1 °F 29% 30.62 in 10.0 mi WNW 3.5 mph - N/A   Clear
4:55 PM 31.1 °F - 2.5 °F 30% 30.62 in 10.0 mi Calm Calm - N/A   Clear
5:35 PM 29.8 °F - 2.5 °F 31% 30.62 in 10.0 mi Calm Calm - N/A   Clear
5:55 PM 28.2 °F - 3.0 °F 34% 30.62 in 10.0 mi Calm Calm - N/A   Clear
6:15 PM 25.2 °F - 4.6 °F 42% 30.62 in 10.0 mi Calm Calm - N/A   Clear
6:35 PM 23.5 °F 19.1 °F 6.1 °F 47% 30.62 in 10.0 mi SW 3.5 mph - N/A   Clear
6:55 PM 22.3 °F 17.6 °F 7.3 °F 53% 30.62 in 10.0 mi SSW 3.5 mph - N/A   Clear
7:15 PM 22.3 °F - 6.8 °F 52% 30.62 in 10.0 mi Calm Calm - N/A   Clear
7:35 PM 20.7 °F 15.8 °F 7.7 °F 57% 30.62 in 10.0 mi SSW 3.5 mph - N/A   Clear
7:55 PM 19.9 °F 14.9 °F 9.0 °F 62% 30.62 in 10.0 mi SW 3.5 mph - N/A   Clear
8:15 PM 19.0 °F - 9.0 °F 65% 30.62 in 10.0 mi Calm Calm - N/A   Clear
8:35 PM 22.5 °F 17.8 °F 6.8 °F 51% 30.62 in 10.0 mi SSW 3.5 mph - N/A   Clear
8:55 PM 21.9 °F 17.2 °F 7.2 °F 53% 30.62 in 10.0 mi SSW 3.5 mph - N/A   Clear
9:15 PM 22.1 °F 17.4 °F 5.7 °F 49% 30.62 in 10.0 mi SSW 3.5 mph - N/A   Clear
9:35 PM 21.0 °F 16.2 °F 5.5 °F 51% 30.61 in 10.0 mi SSW 3.5 mph - N/A   Clear
9:55 PM 19.9 °F 14.9 °F 5.7 °F 54% 30.61 in 10.0 mi SW 3.5 mph - N/A   Clear
10:15 PM 17.8 °F - 6.1 °F 60% 30.60 in 10.0 mi Calm Calm - N/A   Clear
10:35 PM 17.1 °F - 6.8 °F 64% 30.59 in 10.0 mi Calm Calm - N/A   Clear
10:55 PM 21.7 °F 15.5 °F 7.7 °F 55% 30.58 in 10.0 mi SSW 4.6 mph - N/A   Clear
11:15 PM 23.0 °F 18.4 °F 7.3 °F 51% 30.58 in 10.0 mi SW 3.5 mph - N/A   Clear
11:35 PM 21.2 °F 14.9 °F 7.2 °F 55% 30.58 in 10.0 mi SW 4.6 mph - N/A   Clear